BOX192 EDDP-EGNX
Flight info
| Callsign | BOX192 |
|---|---|
| Flight time | 1h 35m |
| Altitude | 36000 |
| Route | PENEM Y233 EMBOX L986 POVEL DCT GALSO Q63 ERING L179 LAM L610 HEMEL |
| Aircraft | B77L/H-SDE1E2E3FGHIJ2J3J4J5M1RWXYZ/LB1D1 |
Departure
| Time | 2026-05-04 15:16 |
|---|---|
| Airport | Leipzig/Halle Airport (EDDP) |
Arrival
| Time | 2026-05-04 16:51 |
|---|---|
| Airport | East Midlands Airport (EGNX) |
| Time | Latitude | Longitude | Altitude | Speed | Heading |
|---|---|---|---|---|---|
| 2026-05-04 14:29 | 51.40765 | 12.24503 | 468 ft | 0 kts | 266° |
| 2026-05-04 15:02 | 51.40765 | 12.24522 | 467 ft | 3 kts | 266° |
| 2026-05-04 15:03 | 51.40767 | 12.24559 | 467 ft | 3 kts | 266° |
| 2026-05-04 15:03 | 51.40769 | 12.24596 | 467 ft | 3 kts | 266° |
| 2026-05-04 15:03 | 51.40770 | 12.24633 | 467 ft | 2 kts | 266° |
| 2026-05-04 15:03 | 51.40774 | 12.24664 | 468 ft | 3 kts | 229° |
| 2026-05-04 15:04 | 51.40792 | 12.24681 | 466 ft | 3 kts | 186° |
| 2026-05-04 15:04 | 51.40815 | 12.24682 | 469 ft | 3 kts | 173° |
| 2026-05-04 15:10 | 51.40798 | 12.24669 | 468 ft | 4 kts | 234° |
| 2026-05-04 15:10 | 51.40849 | 12.24659 | 469 ft | 5 kts | 13° |
| 2026-05-04 15:11 | 51.40892 | 12.24664 | 467 ft | 10 kts | 358° |
| 2026-05-04 15:11 | 51.40983 | 12.24656 | 472 ft | 11 kts | 357° |
| 2026-05-04 15:11 | 51.41051 | 12.24647 | 473 ft | 10 kts | 355° |
| 2026-05-04 15:11 | 51.41098 | 12.24704 | 473 ft | 10 kts | 78° |
| 2026-05-04 15:12 | 51.41105 | 12.24814 | 475 ft | 10 kts | 85° |
| 2026-05-04 15:12 | 51.41110 | 12.24923 | 478 ft | 10 kts | 86° |
| 2026-05-04 15:12 | 51.41115 | 12.25033 | 479 ft | 10 kts | 85° |
| 2026-05-04 15:12 | 51.41120 | 12.25143 | 479 ft | 10 kts | 86° |
| 2026-05-04 15:13 | 51.41125 | 12.25253 | 478 ft | 10 kts | 85° |
| 2026-05-04 15:13 | 51.41130 | 12.25362 | 481 ft | 10 kts | 85° |
| 2026-05-04 15:13 | 51.41136 | 12.25472 | 479 ft | 10 kts | 85° |
| 2026-05-04 15:13 | 51.41145 | 12.25588 | 480 ft | 11 kts | 69° |
| 2026-05-04 15:14 | 51.41218 | 12.25623 | 472 ft | 12 kts | 355° |
| 2026-05-04 15:14 | 51.41298 | 12.25612 | 479 ft | 12 kts | 355° |
| 2026-05-04 15:14 | 51.41376 | 12.25578 | 469 ft | 12 kts | 321° |
| 2026-05-04 15:14 | 51.41392 | 12.25428 | 468 ft | 22 kts | 266° |
| 2026-05-04 15:15 | 51.41368 | 12.24895 | 472 ft | 83 kts | 266° |
| 2026-05-04 15:15 | 51.41308 | 12.23610 | 471 ft | 146 kts | 265° |
| 2026-05-04 15:15 | 51.41215 | 12.21739 | 618 ft | 180 kts | 266° |
| 2026-05-04 15:16 | 51.41029 | 12.17789 | 1913 ft | 182 kts | 264° |
| 2026-05-04 15:16 | 51.40912 | 12.15743 | 2564 ft | 185 kts | 264° |
| 2026-05-04 15:16 | 51.40808 | 12.11642 | 3728 ft | 190 kts | 286° |
| 2026-05-04 15:17 | 51.41522 | 12.09745 | 3968 ft | 213 kts | 313° |
| 2026-05-04 15:17 | 51.44412 | 12.07615 | 4516 ft | 260 kts | 5° |
| 2026-05-04 15:17 | 51.46248 | 12.07979 | 5034 ft | 271 kts | 3° |
| 2026-05-04 15:18 | 51.48150 | 12.08146 | 5780 ft | 277 kts | 359° |
| 2026-05-04 15:18 | 51.50086 | 12.08198 | 6612 ft | 280 kts | 359° |
| 2026-05-04 15:18 | 51.52042 | 12.08212 | 7407 ft | 282 kts | 358° |
| 2026-05-04 15:19 | 51.56026 | 12.08294 | 8991 ft | 291 kts | 359° |
| 2026-05-04 15:19 | 51.58067 | 12.08367 | 9753 ft | 295 kts | 359° |
| 2026-05-04 15:19 | 51.62335 | 12.08513 | 10649 ft | 329 kts | 359° |
| 2026-05-04 15:20 | 51.64714 | 12.08590 | 10874 ft | 354 kts | 359° |
| 2026-05-04 15:20 | 51.67261 | 12.08671 | 11186 ft | 376 kts | 359° |
| 2026-05-04 15:20 | 51.69865 | 12.08320 | 11634 ft | 380 kts | 341° |
| 2026-05-04 15:20 | 51.72211 | 12.06389 | 12488 ft | 380 kts | 320° |
| 2026-05-04 15:21 | 51.74085 | 12.03429 | 13449 ft | 378 kts | 309° |
| 2026-05-04 15:21 | 51.75851 | 12.00229 | 14216 ft | 385 kts | 309° |
| 2026-05-04 15:21 | 51.79452 | 11.93695 | 15928 ft | 393 kts | 309° |
| 2026-05-04 15:22 | 51.81273 | 11.90437 | 16725 ft | 399 kts | 309° |
| 2026-05-04 15:22 | 51.83149 | 11.87093 | 17515 ft | 404 kts | 309° |
| 2026-05-04 15:22 | 51.86711 | 11.79989 | 19012 ft | 409 kts | 301° |
| 2026-05-04 15:23 | 51.88320 | 11.76165 | 19715 ft | 413 kts | 301° |
| 2026-05-04 15:23 | 51.89940 | 11.72308 | 20472 ft | 416 kts | 301° |
| 2026-05-04 15:23 | 51.91575 | 11.68427 | 21184 ft | 419 kts | 301° |
| 2026-05-04 15:23 | 51.93233 | 11.64505 | 21870 ft | 424 kts | 301° |
| 2026-05-04 15:24 | 51.96601 | 11.56560 | 23301 ft | 431 kts | 301° |
| 2026-05-04 15:24 | 52.00017 | 11.48492 | 24508 ft | 437 kts | 301° |
| 2026-05-04 15:25 | 52.01740 | 11.44410 | 25086 ft | 439 kts | 300° |
| 2026-05-04 15:25 | 52.03234 | 11.40839 | 25595 ft | 441 kts | 298° |
| 2026-05-04 15:25 | 52.03987 | 11.38829 | 25847 ft | 441 kts | 295° |
| 2026-05-04 15:26 | 52.06397 | 11.29694 | 26957 ft | 441 kts | 284° |
| 2026-05-04 15:26 | 52.07172 | 11.24865 | 27492 ft | 441 kts | 279° |
| 2026-05-04 15:26 | 52.08465 | 11.15049 | 28547 ft | 447 kts | 278° |
| 2026-05-04 15:27 | 52.09121 | 11.10099 | 29041 ft | 450 kts | 278° |
| 2026-05-04 15:27 | 52.10469 | 11.00099 | 29992 ft | 454 kts | 279° |
| 2026-05-04 15:28 | 52.11818 | 10.90152 | 31353 ft | 445 kts | 279° |
| 2026-05-04 15:28 | 52.12389 | 10.85251 | 32046 ft | 438 kts | 274° |
| 2026-05-04 15:28 | 52.12717 | 10.75497 | 33130 ft | 429 kts | 265° |
| 2026-05-04 15:29 | 52.12609 | 10.70641 | 33536 ft | 429 kts | 265° |
| 2026-05-04 15:30 | 52.12159 | 10.51324 | 34991 ft | 428 kts | 265° |
| 2026-05-04 15:30 | 52.11830 | 10.36793 | 35889 ft | 430 kts | 265° |
| 2026-05-04 15:31 | 52.11486 | 10.22058 | 35972 ft | 434 kts | 265° |
| 2026-05-04 15:32 | 52.10883 | 9.97818 | 35963 ft | 428 kts | 265° |
| 2026-05-04 15:34 | 52.10226 | 9.73692 | 35958 ft | 430 kts | 265° |
| 2026-05-04 15:34 | 52.09806 | 9.59052 | 35962 ft | 434 kts | 264° |
| 2026-05-04 15:35 | 52.09364 | 9.44325 | 35952 ft | 436 kts | 264° |
| 2026-05-04 15:36 | 52.08902 | 9.29547 | 35945 ft | 437 kts | 264° |
| 2026-05-04 15:36 | 52.08584 | 9.19673 | 35949 ft | 437 kts | 264° |
| 2026-05-04 15:37 | 52.08258 | 9.09811 | 35947 ft | 437 kts | 264° |
| 2026-05-04 15:37 | 52.07923 | 8.99965 | 35950 ft | 436 kts | 264° |
| 2026-05-04 15:38 | 52.07581 | 8.90136 | 35954 ft | 435 kts | 264° |
| 2026-05-04 15:38 | 52.07233 | 8.80329 | 35964 ft | 435 kts | 264° |
| 2026-05-04 15:39 | 52.06875 | 8.70522 | 35954 ft | 435 kts | 264° |
| 2026-05-04 15:40 | 52.06323 | 8.55825 | 35960 ft | 434 kts | 264° |
| 2026-05-04 15:40 | 52.06080 | 8.49505 | 35962 ft | 434 kts | 264° |
| 2026-05-04 15:41 | 52.05697 | 8.39719 | 35955 ft | 434 kts | 263° |
| 2026-05-04 15:41 | 52.05305 | 8.29925 | 35963 ft | 435 kts | 263° |
| 2026-05-04 15:42 | 52.04905 | 8.20116 | 35960 ft | 435 kts | 263° |
| 2026-05-04 15:42 | 52.04497 | 8.10296 | 35962 ft | 436 kts | 263° |
| 2026-05-04 15:43 | 52.04080 | 8.00464 | 35963 ft | 437 kts | 263° |
| 2026-05-04 15:43 | 52.03653 | 7.90613 | 35964 ft | 437 kts | 263° |
| 2026-05-04 15:44 | 52.03218 | 7.80766 | 35976 ft | 438 kts | 263° |
| 2026-05-04 15:44 | 52.02778 | 7.70959 | 35945 ft | 439 kts | 263° |
| 2026-05-04 15:45 | 52.02325 | 7.61082 | 35962 ft | 439 kts | 263° |
| 2026-05-04 15:45 | 52.01864 | 7.51191 | 35964 ft | 439 kts | 263° |
| 2026-05-04 15:46 | 52.01395 | 7.41290 | 35968 ft | 440 kts | 263° |
| 2026-05-04 15:46 | 52.00915 | 7.31393 | 35980 ft | 440 kts | 262° |
| 2026-05-04 15:47 | 52.00506 | 7.23087 | 35973 ft | 440 kts | 262° |
| 2026-05-04 15:47 | 52.00011 | 7.13178 | 35972 ft | 441 kts | 262° |
| 2026-05-04 15:48 | 51.99509 | 7.03272 | 35966 ft | 441 kts | 262° |
| 2026-05-04 15:48 | 51.98744 | 6.88496 | 35971 ft | 440 kts | 262° |
| 2026-05-04 15:49 | 51.98222 | 6.78614 | 35978 ft | 440 kts | 262° |
| 2026-05-04 15:49 | 51.97688 | 6.68712 | 35971 ft | 441 kts | 262° |
| 2026-05-04 15:50 | 51.97146 | 6.58790 | 35970 ft | 442 kts | 262° |
| 2026-05-04 15:50 | 51.96595 | 6.48862 | 35960 ft | 442 kts | 262° |
| 2026-05-04 15:51 | 51.96038 | 6.38948 | 35961 ft | 441 kts | 261° |
| 2026-05-04 15:51 | 51.95471 | 6.29041 | 35978 ft | 442 kts | 261° |
| 2026-05-04 15:52 | 51.94895 | 6.19072 | 35972 ft | 447 kts | 261° |
| 2026-05-04 15:52 | 51.94308 | 6.09050 | 35943 ft | 445 kts | 261° |
| 2026-05-04 15:53 | 51.93710 | 5.99117 | 35955 ft | 441 kts | 261° |
| 2026-05-04 15:53 | 51.93112 | 5.89256 | 35960 ft | 439 kts | 261° |
| 2026-05-04 15:54 | 51.92504 | 5.79378 | 35985 ft | 444 kts | 261° |
| 2026-05-04 15:54 | 51.91879 | 5.69364 | 35970 ft | 448 kts | 261° |
| 2026-05-04 15:55 | 51.91271 | 5.59722 | 35955 ft | 449 kts | 261° |
| 2026-05-04 15:55 | 51.90818 | 5.52621 | 35961 ft | 448 kts | 261° |
| 2026-05-04 15:56 | 51.90171 | 5.42580 | 35983 ft | 448 kts | 261° |
| 2026-05-04 15:56 | 51.89512 | 5.32533 | 35974 ft | 449 kts | 261° |
| 2026-05-04 15:57 | 51.89171 | 5.27586 | 35903 ft | 435 kts | 260° |
| 2026-05-04 15:57 | 51.88820 | 5.22768 | 35417 ft | 430 kts | 259° |
| 2026-05-04 15:57 | 51.88709 | 5.21238 | 35192 ft | 430 kts | 259° |
| 2026-05-04 15:58 | 51.88460 | 5.17719 | 34723 ft | 429 kts | 260° |
| 2026-05-04 15:58 | 51.88180 | 5.13003 | 34741 ft | 412 kts | 261° |
| 2026-05-04 15:59 | 51.88009 | 5.08329 | 34494 ft | 424 kts | 263° |
| 2026-05-04 15:59 | 51.87822 | 5.03536 | 34588 ft | 430 kts | 261° |
| 2026-05-04 15:59 | 51.87162 | 4.93755 | 34742 ft | 444 kts | 259° |
| 2026-05-04 16:00 | 51.86785 | 4.88775 | 34940 ft | 447 kts | 259° |
| 2026-05-04 16:00 | 51.86408 | 4.83770 | 35171 ft | 450 kts | 259° |
| 2026-05-04 16:00 | 51.85825 | 4.76202 | 35497 ft | 452 kts | 259° |
| 2026-05-04 16:01 | 51.85458 | 4.71157 | 35728 ft | 452 kts | 260° |
| 2026-05-04 16:01 | 51.85095 | 4.66082 | 35856 ft | 455 kts | 260° |
| 2026-05-04 16:01 | 51.84374 | 4.56072 | 35959 ft | 458 kts | 260° |
| 2026-05-04 16:02 | 51.83621 | 4.45835 | 35968 ft | 460 kts | 260° |
| 2026-05-04 16:03 | 51.82468 | 4.30504 | 35964 ft | 460 kts | 259° |
| 2026-05-04 16:03 | 51.81682 | 4.20216 | 35966 ft | 457 kts | 259° |
| 2026-05-04 16:04 | 51.80897 | 4.10055 | 35966 ft | 454 kts | 259° |
| 2026-05-04 16:04 | 51.79717 | 3.94991 | 35979 ft | 451 kts | 259° |
| 2026-05-04 16:05 | 51.78918 | 3.84960 | 36015 ft | 450 kts | 259° |
| 2026-05-04 16:06 | 51.77703 | 3.69902 | 36005 ft | 451 kts | 259° |
| 2026-05-04 16:07 | 51.76051 | 3.49783 | 36008 ft | 453 kts | 259° |
| 2026-05-04 16:08 | 51.74355 | 3.29572 | 36012 ft | 456 kts | 259° |
| 2026-05-04 16:09 | 51.72182 | 3.04163 | 35998 ft | 458 kts | 259° |
| 2026-05-04 16:10 | 51.70513 | 2.84940 | 35999 ft | 459 kts | 259° |
| 2026-05-04 16:11 | 51.68941 | 2.67154 | 35990 ft | 459 kts | 259° |
| 2026-05-04 16:12 | 51.66157 | 2.36648 | 36004 ft | 459 kts | 259° |
| 2026-05-04 16:13 | 51.64238 | 2.16400 | 35995 ft | 459 kts | 259° |
| 2026-05-04 16:14 | 51.62368 | 1.96069 | 35999 ft | 459 kts | 259° |
| 2026-05-04 16:16 | 51.59993 | 1.70631 | 35993 ft | 460 kts | 259° |
| 2026-05-04 16:16 | 51.59269 | 1.55214 | 35990 ft | 465 kts | 271° |
| 2026-05-04 16:17 | 51.59774 | 1.44847 | 35993 ft | 465 kts | 271° |
| 2026-05-04 16:18 | 51.60668 | 1.24041 | 36001 ft | 467 kts | 271° |
| 2026-05-04 16:19 | 51.61659 | 0.97945 | 36000 ft | 468 kts | 271° |
| 2026-05-04 16:20 | 51.62710 | 0.71752 | 36020 ft | 470 kts | 270° |
| 2026-05-04 16:22 | 51.63597 | 0.45477 | 36018 ft | 471 kts | 271° |
| 2026-05-04 16:22 | 51.64125 | 0.29838 | 34914 ft | 463 kts | 270° |
| 2026-05-04 16:23 | 51.65248 | 0.14488 | 33085 ft | 451 kts | 282° |
| 2026-05-04 16:24 | 51.69910 | -0.03754 | 29327 ft | 431 kts | 291° |
| 2026-05-04 16:25 | 51.72371 | -0.12382 | 27518 ft | 415 kts | 291° |
| 2026-05-04 16:26 | 51.76191 | -0.26025 | 26064 ft | 396 kts | 291° |
| 2026-05-04 16:26 | 51.79538 | -0.38055 | 24788 ft | 387 kts | 291° |
| 2026-05-04 16:27 | 51.82943 | -0.44404 | 23961 ft | 389 kts | 326° |
| 2026-05-04 16:28 | 51.89895 | -0.51013 | 22619 ft | 384 kts | 327° |
| 2026-05-04 16:28 | 51.96703 | -0.57601 | 21351 ft | 376 kts | 326° |
| 2026-05-04 16:29 | 52.05543 | -0.66262 | 19711 ft | 366 kts | 327° |
| 2026-05-04 16:30 | 52.12029 | -0.72655 | 18490 ft | 361 kts | 327° |
| 2026-05-04 16:31 | 52.16275 | -0.76848 | 17568 ft | 358 kts | 326° |
| 2026-05-04 16:31 | 52.22519 | -0.83035 | 15255 ft | 346 kts | 327° |
| 2026-05-04 16:32 | 52.27996 | -0.88462 | 12966 ft | 340 kts | 327° |
| 2026-05-04 16:33 | 52.32000 | -0.92427 | 11732 ft | 334 kts | 327° |
| 2026-05-04 16:33 | 52.35930 | -0.96327 | 10931 ft | 327 kts | 327° |
| 2026-05-04 16:34 | 52.39760 | -0.99930 | 10497 ft | 304 kts | 340° |
| 2026-05-04 16:34 | 52.41809 | -1.00346 | 10374 ft | 294 kts | 3° |
| 2026-05-04 16:35 | 52.47268 | -0.97259 | 10003 ft | 269 kts | 21° |
| 2026-05-04 16:35 | 52.52728 | -0.97791 | 9110 ft | 274 kts | 341° |
| 2026-05-04 16:36 | 52.54568 | -0.98690 | 8791 ft | 277 kts | 341° |
| 2026-05-04 16:36 | 52.58237 | -1.00467 | 8151 ft | 271 kts | 342° |
| 2026-05-04 16:37 | 52.61778 | -1.02191 | 7476 ft | 264 kts | 341° |
| 2026-05-04 16:37 | 52.63532 | -1.03047 | 7138 ft | 261 kts | 342° |
| 2026-05-04 16:37 | 52.67124 | -1.03431 | 6366 ft | 265 kts | 359° |
| 2026-05-04 16:38 | 52.70826 | -1.03461 | 5494 ft | 266 kts | 358° |
| 2026-05-04 16:39 | 52.76358 | -1.03051 | 4259 ft | 260 kts | 5° |
| 2026-05-04 16:39 | 52.79792 | -1.02487 | 3935 ft | 240 kts | 5° |
| 2026-05-04 16:40 | 52.82943 | -1.03009 | 3801 ft | 231 kts | 322° |
| 2026-05-04 16:40 | 52.84075 | -1.05756 | 3744 ft | 229 kts | 284° |
| 2026-05-04 16:41 | 52.84005 | -1.10956 | 3662 ft | 229 kts | 262° |
| 2026-05-04 16:41 | 52.83715 | -1.18685 | 3504 ft | 223 kts | 293° |
| 2026-05-04 16:42 | 52.84096 | -1.26048 | 3387 ft | 232 kts | 251° |
| 2026-05-04 16:43 | 52.83026 | -1.31108 | 3271 ft | 232 kts | 251° |
| 2026-05-04 16:43 | 52.81979 | -1.36081 | 3143 ft | 228 kts | 251° |
| 2026-05-04 16:43 | 52.81455 | -1.38558 | 3079 ft | 229 kts | 251° |
| 2026-05-04 16:44 | 52.79343 | -1.48451 | 2730 ft | 226 kts | 251° |
| 2026-05-04 16:45 | 52.78343 | -1.53114 | 2616 ft | 207 kts | 251° |
| 2026-05-04 16:46 | 52.77967 | -1.59447 | 2468 ft | 183 kts | 299° |
| 2026-05-04 16:46 | 52.80033 | -1.61655 | 2344 ft | 186 kts | 0° |
| 2026-05-04 16:47 | 52.82193 | -1.59655 | 2263 ft | 186 kts | 57° |
| 2026-05-04 16:47 | 52.82718 | -1.55606 | 2153 ft | 177 kts | 88° |
| 2026-05-04 16:48 | 52.82794 | -1.49893 | 1995 ft | 156 kts | 87° |
| 2026-05-04 16:48 | 52.82826 | -1.48133 | 1892 ft | 154 kts | 87° |
| 2026-05-04 16:49 | 52.82889 | -1.44612 | 1583 ft | 155 kts | 87° |
| 2026-05-04 16:49 | 52.82954 | -1.41121 | 1136 ft | 149 kts | 87° |
| 2026-05-04 16:50 | 52.83009 | -1.37696 | 730 ft | 148 kts | 87° |
| 2026-05-04 16:50 | 52.83074 | -1.34325 | 322 ft | 146 kts | 88° |
| 2026-05-04 16:51 | 52.83114 | -1.32070 | 310 ft | 34 kts | 88° |
| 2026-05-04 16:51 | 52.83121 | -1.31704 | 315 ft | 30 kts | 88° |
| 2026-05-04 16:51 | 52.83100 | -1.31329 | 311 ft | 10 kts | 161° |
| 2026-05-04 16:52 | 52.82970 | -1.31336 | 308 ft | 8 kts | 223° |
| 2026-05-04 16:52 | 52.82957 | -1.31426 | 305 ft | 8 kts | 266° |
| 2026-05-04 16:53 | 52.82951 | -1.31689 | 305 ft | 23 kts | 269° |
| 2026-05-04 16:53 | 52.82942 | -1.32230 | 305 ft | 15 kts | 269° |
| 2026-05-04 16:54 | 52.82939 | -1.32385 | 306 ft | 13 kts | 268° |
| 2026-05-04 16:55 | 52.82928 | -1.32973 | 306 ft | 13 kts | 268° |
| 2026-05-04 16:55 | 52.82922 | -1.33276 | 309 ft | 13 kts | 268° |
| 2026-05-04 16:56 | 52.82916 | -1.33588 | 311 ft | 14 kts | 268° |
| 2026-05-04 16:56 | 52.82907 | -1.34096 | 308 ft | 17 kts | 268° |
| 2026-05-04 16:57 | 52.82907 | -1.34284 | 310 ft | 15 kts | 271° |
| 2026-05-04 16:57 | 52.82903 | -1.34635 | 310 ft | 16 kts | 268° |
| 2026-05-04 16:58 | 52.82894 | -1.35165 | 309 ft | 11 kts | 268° |
| 2026-05-04 16:58 | 52.82862 | -1.35258 | 309 ft | 9 kts | 197° |
| 2026-05-04 16:59 | 52.82773 | -1.35218 | 308 ft | 4 kts | 178° |
| 2026-05-04 17:00 | 52.82739 | -1.35217 | 305 ft | 0 kts | 178° |